High Force — 3FMA2 — position and weather

sailwx.info

Track history (hours):
 
Tides and Currents Weather Stations Pressure Air Temp Water Temp Dewpoint Dewpoint Depression Visibility Wind Speed Wind Dir Waves Ship Positions

High Force

Last reported at 2018-May-12 04:30 UTC. Time now 2018-May-26 10:15 UTC.
Position N 31°06' E 122°32'.
Warning: this ship's position is 14 days out of date.

Length 186 m; draft 11.1 m.

Type: Ship. MMSI: 351838000.

Date/timePositionNaut miles runAvg speedWind from/ knotsBaromVisibWave heightAir tempDewpointWater temp
2018-May-12 04:30N 31°06' E 122°32'511.2
2018-May-12 04:00N 31°06' E 122°25'714.3
2018-May-12 03:30N 31°07' E 122°17'713.9
2018-May-12 03:00N 31°11' E 122°10'712.7
2018-May-12 02:29N 31°14' E 122°04'712.3
2018-May-12 01:54N 31°15' E 121°55'711.7
2018-May-12 01:17N 31°18' E 121°47'19 8.7
2018-May-11 23:06N 31°27' E 121°28'1 8.6
2018-May-11 22:56N 31°28' E 121°27'511.4
2018-May-11 22:30N 31°31' E 121°23'4 7.1
2018-May-11 22:00N 31°34' E 121°20'0 0.1
2018-May-11 21:29N 31°34' E 121°20'0 0.0
2018-May-11 20:59N 31°34' E 121°20'0 0.0
2018-May-11 20:23N 31°34' E 121°20'0 0.0
2018-May-11 19:59N 31°34' E 121°20'0 0.0
2018-May-11 19:29N 31°34' E 121°20'0 0.0
2018-May-11 18:59N 31°34' E 121°20'0 0.0
2018-May-11 18:29N 31°34' E 121°20'0 0.0
2018-May-11 17:59N 31°34' E 121°20'0 0.1
2018-May-11 17:29N 31°34' E 121°20'0 0.3
2018-May-11 16:59N 31°34' E 121°20'0 0.1
2018-May-11 16:29N 31°34' E 121°20'0 0.0
2018-May-11 15:59N 31°34' E 121°20'0 0.1
2018-May-11 15:29N 31°34' E 121°20'0 0.0
2018-May-11 14:59N 31°34' E 121°20'0 0.0
2018-May-11 14:29N 31°34' E 121°20'0 0.0
2018-May-11 13:53N 31°34' E 121°20'0 0.0
2018-May-11 13:29N 31°34' E 121°20'0 0.0
2018-May-11 12:59N 31°34' E 121°20'0 0.0
2018-May-11 12:29N 31°34' E 121°20'1 2.1
2018-May-11 12:00N 31°35' E 121°19'510.4
2018-May-11 11:30N 31°38' E 121°14'612.5
2018-May-11 11:00N 31°42' E 121°09'713.1
2018-May-11 10:30N 31°46' E 121°03'611.8
2018-May-11 09:59N 31°48' E 120°55'21 9.8
2018-May-11 07:47N 32°00' E 120°35'311.6
2018-May-11 07:30N 32°02' E 120°31'611.5
2018-May-11 06:59N 32°01' E 120°24'  
2018-May-07 00:51N 31°60' E 120°22'513.3
2018-May-07 00:30N 32°02' E 120°27'612.7
2018-May-07 00:00N 32°01' E 120°34'2911.2
2018-May-06 21:23N 31°46' E 121°04'514.2
2018-May-06 21:01N 31°42' E 121°09'713.4
2018-May-06 20:31N 31°38' E 121°15'611.3
2018-May-06 20:01N 31°34' E 121°20'1 1.3
2018-May-06 19:28N 31°34' E 121°20'0 0.0
2018-May-06 18:58N 31°34' E 121°20'0 0.2
2018-May-06 18:28N 31°34' E 121°20'0 0.0
2018-May-06 17:58N 31°34' E 121°20'0 0.1
2018-May-06 17:28N 31°34' E 121°20'0 0.1
2018-May-06 16:46N 31°34' E 121°20'0 0.0
2018-May-06 16:28N 31°34' E 121°20'0 0.0
2018-May-06 15:58N 31°34' E 121°20'0 0.0
2018-May-06 15:28N 31°34' E 121°20'0 0.0
2018-May-06 14:58N 31°34' E 121°20'0 0.0
2018-May-06 14:28N 31°34' E 121°20'0 0.0
2018-May-06 13:58N 31°34' E 121°20'0 0.0
2018-May-06 13:28N 31°34' E 121°20'0 0.0
2018-May-06 12:58N 31°34' E 121°20'0 0.1
2018-May-06 12:28N 31°34' E 121°20'0 0.1
2018-May-06 11:49N 31°34' E 121°20'0 0.0
2018-May-06 11:28N 31°34' E 121°20'0 0.5
2018-May-06 11:00N 31°34' E 121°20'2 4.7
2018-May-06 10:30N 31°32' E 121°22'3 7.0
2018-May-06 10:00N 31°30' E 121°25'610.9
2018-May-06 09:30N 31°26' E 121°30'19 9.5
2018-May-06 07:32N 31°14' E 121°47'014.4
2018-May-06 07:30N 31°14' E 121°47'714.3
2018-May-06 07:00N 31°09' E 121°53'713.3
2018-May-06 06:30N 31°06' E 121°60'510.9
2018-May-06 06:00N 31°04' E 122°06'5 9.8
2018-May-06 05:30N 31°03' E 122°12'510.6
2018-May-06 05:00N 31°03' E 122°18'712.0
2018-May-06 04:24N 31°01' E 122°26'14 0.4
2018-May-04 15:06N 30°58' E 122°42'0 0.0
2018-May-04 09:57N 30°58' E 122°43'0 0.0
2018-May-04 05:15N 30°58' E 122°42'0 0.0
2018-May-04 04:48N 30°58' E 122°42'0 0.1
2018-May-04 04:21N 30°58' E 122°42'0 0.0
2018-May-04 03:18N 30°58' E 122°42'0 0.1
2018-May-03 22:45N 30°58' E 122°43'0 0.0
2018-May-03 18:09N 30°58' E 122°42'3 0.4
2018-May-03 08:18N 30°57' E 122°46'5 6.6
2018-May-03 07:32N 30°56' E 122°52'2 7.3
2018-May-03 07:16N 30°56' E 122°54'7 7.3
2018-May-03 06:17N 30°56' E 123°02'312.3
2018-May-03 06:00N 30°57' E 123°06'712.9
2018-May-03 05:28N 30°56' E 123°15'612.9
2018-May-03 05:00N 30°56' E 123°22'813.6
2018-May-03 04:26N 30°51' E 123°28'  
Track history (hours):
 
Tides and Currents Weather Stations Pressure Air Temp Water Temp Dewpoint Dewpoint Depression Visibility Wind Speed Wind Dir Waves Ship Positions

High Force

Last reported at 2018-May-12 04:30 UTC. Time now 2018-May-26 10:15 UTC.
Position N 31°06' E 122°32'.
Warning: this ship's position is 14 days out of date.

Length 186 m; draft 11.1 m.

Type: Ship. MMSI: 351838000.

Date/timePositionNaut miles runAvg speedWind from/ knotsBaromVisibWave heightAir tempDewpointWater temp
2018-May-12 04:30N 31°06' E 122°32'511.2
2018-May-12 04:00N 31°06' E 122°25'714.3
2018-May-12 03:30N 31°07' E 122°17'713.9
2018-May-12 03:00N 31°11' E 122°10'712.7
2018-May-12 02:29N 31°14' E 122°04'712.3
2018-May-12 01:54N 31°15' E 121°55'711.7
2018-May-12 01:17N 31°18' E 121°47'19 8.7
2018-May-11 23:06N 31°27' E 121°28'1 8.6
2018-May-11 22:56N 31°28' E 121°27'511.4
2018-May-11 22:30N 31°31' E 121°23'4 7.1
2018-May-11 22:00N 31°34' E 121°20'0 0.1
2018-May-11 21:29N 31°34' E 121°20'0 0.0
2018-May-11 20:59N 31°34' E 121°20'0 0.0
2018-May-11 20:23N 31°34' E 121°20'0 0.0
2018-May-11 19:59N 31°34' E 121°20'0 0.0
2018-May-11 19:29N 31°34' E 121°20'0 0.0
2018-May-11 18:59N 31°34' E 121°20'0 0.0
2018-May-11 18:29N 31°34' E 121°20'0 0.0
2018-May-11 17:59N 31°34' E 121°20'0 0.1
2018-May-11 17:29N 31°34' E 121°20'0 0.3
2018-May-11 16:59N 31°34' E 121°20'0 0.1
2018-May-11 16:29N 31°34' E 121°20'0 0.0
2018-May-11 15:59N 31°34' E 121°20'0 0.1
2018-May-11 15:29N 31°34' E 121°20'0 0.0
2018-May-11 14:59N 31°34' E 121°20'0 0.0
2018-May-11 14:29N 31°34' E 121°20'0 0.0
2018-May-11 13:53N 31°34' E 121°20'0 0.0
2018-May-11 13:29N 31°34' E 121°20'0 0.0
2018-May-11 12:59N 31°34' E 121°20'0 0.0
2018-May-11 12:29N 31°34' E 121°20'1 2.1
2018-May-11 12:00N 31°35' E 121°19'510.4
2018-May-11 11:30N 31°38' E 121°14'612.5
2018-May-11 11:00N 31°42' E 121°09'713.1
2018-May-11 10:30N 31°46' E 121°03'611.8
2018-May-11 09:59N 31°48' E 120°55'21 9.8
2018-May-11 07:47N 32°00' E 120°35'311.6
2018-May-11 07:30N 32°02' E 120°31'611.5
2018-May-11 06:59N 32°01' E 120°24'  
2018-May-07 00:51N 31°60' E 120°22'513.3
2018-May-07 00:30N 32°02' E 120°27'612.7
2018-May-07 00:00N 32°01' E 120°34'2911.2
2018-May-06 21:23N 31°46' E 121°04'514.2
2018-May-06 21:01N 31°42' E 121°09'713.4
2018-May-06 20:31N 31°38' E 121°15'611.3
2018-May-06 20:01N 31°34' E 121°20'1 1.3
2018-May-06 19:28N 31°34' E 121°20'0 0.0
2018-May-06 18:58N 31°34' E 121°20'0 0.2
2018-May-06 18:28N 31°34' E 121°20'0 0.0
2018-May-06 17:58N 31°34' E 121°20'0 0.1
2018-May-06 17:28N 31°34' E 121°20'0 0.1
2018-May-06 16:46N 31°34' E 121°20'0 0.0
2018-May-06 16:28N 31°34' E 121°20'0 0.0
2018-May-06 15:58N 31°34' E 121°20'0 0.0
2018-May-06 15:28N 31°34' E 121°20'0 0.0
2018-May-06 14:58N 31°34' E 121°20'0 0.0
2018-May-06 14:28N 31°34' E 121°20'0 0.0
2018-May-06 13:58N 31°34' E 121°20'0 0.0
2018-May-06 13:28N 31°34' E 121°20'0 0.0
2018-May-06 12:58N 31°34' E 121°20'0 0.1
2018-May-06 12:28N 31°34' E 121°20'0 0.1
2018-May-06 11:49N 31°34' E 121°20'0 0.0
2018-May-06 11:28N 31°34' E 121°20'0 0.5
2018-May-06 11:00N 31°34' E 121°20'2 4.7
2018-May-06 10:30N 31°32' E 121°22'3 7.0
2018-May-06 10:00N 31°30' E 121°25'610.9
2018-May-06 09:30N 31°26' E 121°30'19 9.5
2018-May-06 07:32N 31°14' E 121°47'014.4
2018-May-06 07:30N 31°14' E 121°47'714.3
2018-May-06 07:00N 31°09' E 121°53'713.3
2018-May-06 06:30N 31°06' E 121°60'510.9
2018-May-06 06:00N 31°04' E 122°06'5 9.8
2018-May-06 05:30N 31°03' E 122°12'510.6
2018-May-06 05:00N 31°03' E 122°18'712.0
2018-May-06 04:24N 31°01' E 122°26'14 0.4
2018-May-04 15:06N 30°58' E 122°42'0 0.0
2018-May-04 09:57N 30°58' E 122°43'0 0.0
2018-May-04 05:15N 30°58' E 122°42'0 0.0
2018-May-04 04:48N 30°58' E 122°42'0 0.1
2018-May-04 04:21N 30°58' E 122°42'0 0.0
2018-May-04 03:18N 30°58' E 122°42'0 0.1
2018-May-03 22:45N 30°58' E 122°43'0 0.0
2018-May-03 18:09N 30°58' E 122°42'3 0.4
2018-May-03 08:18N 30°57' E 122°46'5 6.6
2018-May-03 07:32N 30°56' E 122°52'2 7.3
2018-May-03 07:16N 30°56' E 122°54'7 7.3
2018-May-03 06:17N 30°56' E 123°02'312.3
2018-May-03 06:00N 30°57' E 123°06'712.9
2018-May-03 05:28N 30°56' E 123°15'612.9
2018-May-03 05:00N 30°56' E 123°22'813.6
2018-May-03 04:26N 30°51' E 123°28'  

Dump ship's entire track history